Time;durP1;ratioP1;P1;durP2;ratioP2;P2;SDS_P1;SDS_P2;PMS_P1;PMS_P2;Temp;Humidity;BMP_temperature;BMP_pressure;BME280_temperature;BME280_humidity;BME280_pressure;Samples;Min_cycle;Max_cycle;Signal;HPM_P1;HPM_P2
2022/12/30 00:00:37;;;;;;;18.38;3.70;;;6.80;99.90;;;;;;5046567;28;20037;-87
2022/12/30 00:03:03;;;;;;;18.67;3.60;;;6.30;99.90;;;;;;5047566;28;20036;-87
2022/12/30 00:05:29;;;;;;;18.88;3.70;;;7.80;99.90;;;;;;5012477;28;20390;-87
2022/12/30 00:07:54;;;;;;;14.05;3.72;;;6.30;99.90;;;;;;5044166;28;20040;-88
2022/12/30 00:10:20;;;;;;;19.58;4.35;;;6.20;99.90;;;;;;5030091;28;20501;-87
2022/12/30 00:34:45;;;;;;;19.30;3.83;;;6.10;99.90;;;;;;5044477;28;20037;-87
2022/12/30 00:37:11;;;;;;;19.52;3.72;;;6.10;99.90;;;;;;5044153;28;20052;-87
2022/12/30 00:39:36;;;;;;;20.75;3.63;;;6.10;99.90;;;;;;5044598;28;20402;-88
2022/12/30 00:44:46;;;;;;;15.48;3.58;;;6.10;99.90;;;;;;5046090;28;20049;-87
2022/12/30 00:47:12;;;;;;;17.05;3.30;;;6.80;99.90;;;;;;5030083;28;20241;-87
2022/12/30 00:57:51;;;;;;;21.52;4.07;;;6.00;99.90;;;;;;5044750;28;20053;-87
2022/12/30 01:00:17;;;;;;;17.42;3.67;;;6.00;99.90;;;;;;5061231;28;20039;-87
2022/12/30 01:02:42;;;;;;;20.52;3.78;;;6.30;99.90;;;;;;5045001;28;20490;-87
2022/12/30 01:05:11;;;;;;;17.98;3.42;;;6.00;99.90;;;;;;5022324;28;20410;-88
2022/12/30 01:07:37;;;;;;;25.00;4.25;;;6.00;99.90;;;;;;5044962;28;20563;-88
2022/12/30 01:10:03;;;;;;;19.50;4.15;;;6.50;99.90;;;;;;5043183;28;20052;-87
2022/12/30 01:12:29;;;;;;;17.40;3.55;;;5.90;99.90;;;;;;5040979;28;20048;-86
2022/12/30 01:14:55;;;;;;;17.67;3.63;;;7.20;99.90;;;;;;5027955;28;20045;-87
2022/12/30 01:17:24;;;;;;;18.40;3.63;;;5.30;99.90;;;;;;5044705;28;20067;-87
2022/12/30 01:19:50;;;;;;;19.25;3.90;;;6.80;99.90;;;;;;5027877;28;20120;-87
2022/12/30 01:22:16;;;;;;;18.30;3.47;;;5.90;99.90;;;;;;5043374;28;20132;-87
2022/12/30 01:24:42;;;;;;;23.40;3.95;;;6.80;99.90;;;;;;5028188;28;20032;-87
2022/12/30 01:27:07;;;;;;;20.10;3.88;;;6.80;99.90;;;;;;5051401;28;20498;-87
2022/12/30 01:29:36;;;;;;;16.30;3.47;;;6.40;99.90;;;;;;5041725;28;20545;-88
2022/12/30 01:32:03;;;;;;;16.70;3.22;;;5.90;99.90;;;;;;5035162;28;20053;-87
2022/12/30 01:34:29;;;;;;;20.02;3.83;;;5.90;99.90;;;;;;5043493;28;20471;-86
2022/12/30 01:36:55;;;;;;;27.13;4.75;;;5.90;99.90;;;;;;5012401;28;20064;-87
2022/12/30 01:39:21;;;;;;;20.05;3.70;;;6.40;99.90;;;;;;5026994;28;20041;-87
2022/12/30 01:41:47;;;;;;;19.30;3.65;;;6.80;99.90;;;;;;5043748;28;20489;-88
2022/12/30 01:44:44;;;;;;;16.90;3.85;;;5.80;99.90;;;;;;5023675;28;21363;-88
2022/12/30 01:47:14;;;;;;;17.73;3.85;;;5.80;99.90;;;;;;5045084;28;20044;-89
2022/12/30 01:49:44;;;;;;;20.67;3.58;;;7.00;99.90;;;;;;5044090;28;20048;-87
2022/12/30 01:52:12;;;;;;;17.40;3.30;;;6.70;99.90;;;;;;5026967;28;20533;-87
2022/12/30 01:54:37;;;;;;;16.58;3.88;;;7.30;99.90;;;;;;5044234;28;20556;-87
2022/12/30 01:57:06;;;;;;;21.77;3.50;;;6.60;99.90;;;;;;5028238;28;21585;-87
2022/12/30 01:59:32;;;;;;;20.75;3.55;;;6.70;99.90;;;;;;5024275;28;20546;-87
2022/12/30 02:01:59;;;;;;;20.85;3.75;;;6.40;99.90;;;;;;5051656;28;20079;-87
2022/12/30 02:04:26;;;;;;;15.63;3.80;;;7.00;99.90;;;;;;5043624;28;20174;-87
2022/12/30 02:06:58;;;;;;;15.23;3.15;;;7.20;99.90;;;;;;5028950;28;21340;-87
2022/12/30 02:09:29;;;;;;;20.75;4.35;;;6.80;99.90;;;;;;5041346;28;20037;-87
2022/12/30 02:11:56;;;;;;;18.38;3.88;;;5.80;99.90;;;;;;5042975;28;20469;-87
2022/12/30 02:14:23;;;;;;;19.55;3.75;;;6.80;99.90;;;;;;5036634;28;20126;-87
2022/12/30 02:17:31;;;;;;;16.52;4.10;;;5.80;99.90;;;;;;5047210;28;20053;-87
2022/12/30 02:20:33;;;;;;;17.45;3.72;;;5.80;99.90;;;;;;5013694;28;20102;-86
2022/12/30 02:23:37;;;;;;;15.27;3.80;;;5.80;99.90;;;;;;5028452;28;20045;-87
2022/12/30 02:26:35;;;;;;;16.80;3.28;;;5.80;99.90;;;;;;5045638;28;20140;-87
2022/12/30 02:29:23;;;;;;;22.10;3.72;;;5.80;99.90;;;;;;5046289;28;20032;-86
2022/12/30 02:32:11;;;;;;;18.85;3.58;;;5.80;99.90;;;;;;5045110;28;20119;-88
2022/12/30 02:34:45;;;;;;;19.20;3.78;;;5.90;99.90;;;;;;5043810;28;20677;-87
2022/12/30 02:37:39;;;;;;;16.42;3.65;;;6.50;99.90;;;;;;5041209;28;20049;-87
2022/12/30 02:40:24;;;;;;;22.60;3.40;;;6.50;99.90;;;;;;5029794;28;20045;-87
2022/12/30 02:45:58;;;;;;;20.20;4.15;;;7.60;99.90;;;;;;5045275;28;20107;-87
2022/12/30 02:48:31;;;;;;;18.23;3.30;;;6.50;99.90;;;;;;5047100;28;20044;-87
2022/12/30 02:53:44;;;;;;;20.92;4.13;;;5.90;99.90;;;;;;5047198;28;20047;-86
2022/12/30 02:56:10;;;;;;;17.88;3.53;;;7.20;99.90;;;;;;5014418;28;20045;-86
2022/12/30 02:58:40;;;;;;;19.90;4.43;;;5.70;99.90;;;;;;5025446;28;20037;-87
2022/12/30 03:04:29;;;;;;;19.38;4.07;;;5.80;99.90;;;;;;5042315;28;20487;-87
2022/12/30 03:07:37;;;;;;;19.48;3.63;;;5.70;99.90;;;;;;5048120;28;20120;-87
2022/12/30 03:13:25;;;;;;;19.70;3.60;;;5.70;99.90;;;;;;5045243;28;20179;-85
2022/12/30 03:16:07;;;;;;;19.60;3.67;;;6.40;99.90;;;;;;5025283;28;20132;-86
2022/12/30 03:18:34;;;;;;;18.77;3.33;;;5.60;99.90;;;;;;5044535;28;20063;-86
2022/12/30 03:21:04;;;;;;;19.17;4.15;;;5.50;99.90;;;;;;5030214;28;20120;-87
2022/12/30 03:29:04;;;;;;;19.08;3.97;;;;;;;;;;5033490;28;20057;-88
2022/12/30 03:31:30;;;;;;;21.25;3.78;;;5.50;99.90;;;;;;5028847;28;20049;-87
2022/12/30 03:33:56;;;;;;;21.48;3.60;;;6.10;99.90;;;;;;5046006;28;20072;-88
2022/12/30 03:36:29;;;;;;;20.05;3.70;;;5.80;99.90;;;;;;5002134;28;20124;-88
2022/12/30 03:39:16;;;;;;;20.48;3.90;;;5.50;99.90;;;;;;5042928;28;20047;-88
2022/12/30 03:41:45;;;;;;;18.40;4.10;;;5.40;99.90;;;;;;5029228;28;20033;-87
2022/12/30 03:44:11;;;;;;;16.85;3.33;;;5.80;99.90;;;;;;5044590;28;20040;-88
2022/12/30 03:46:41;;;;;;;18.98;3.88;;;6.40;99.90;;;;;;5044024;28;20393;-87
2022/12/30 03:49:06;;;;;;;18.45;3.55;;;6.00;99.90;;;;;;5047416;28;20049;-87
2022/12/30 03:51:32;;;;;;;19.27;3.92;;;6.10;99.90;;;;;;5044851;28;20098;-88
2022/12/30 03:53:58;;;;;;;21.50;4.20;;;7.10;99.90;;;;;;5062486;28;20404;-88
2022/12/30 03:56:24;;;;;;;19.40;4.25;;;5.40;99.90;;;;;;5028052;28;20041;-88
2022/12/30 03:58:49;;;;;;;16.33;3.55;;;6.50;99.90;;;;;;5012923;28;20045;-88
2022/12/30 04:01:15;;;;;;;21.52;4.20;;;5.30;99.90;;;;;;5043930;28;20383;-88
2022/12/30 04:03:41;;;;;;;16.77;3.85;;;6.10;99.90;;;;;;5042045;28;20033;-87
2022/12/30 04:06:07;;;;;;;21.27;4.43;;;7.00;99.90;;;;;;5025637;28;20044;-87
2022/12/30 04:08:32;;;;;;;20.05;3.53;;;5.30;99.90;;;;;;5044840;28;20037;-87
2022/12/30 04:10:58;;;;;;;22.25;4.07;;;6.40;99.90;;;;;;5029743;28;20044;-87
2022/12/30 04:13:24;;;;;;;16.42;3.55;;;6.00;99.90;;;;;;5044776;28;20199;-86
2022/12/30 04:15:51;;;;;;;20.15;3.83;;;6.40;99.90;;;;;;5039066;28;20073;-86
2022/12/30 04:18:17;;;;;;;20.33;3.90;;;6.30;99.90;;;;;;5046011;28;21426;-87
2022/12/30 04:20:46;;;;;;;18.30;3.60;;;4.40;99.90;;;;;;5029396;28;20037;-87
2022/12/30 04:23:11;;;;;;;19.00;3.78;;;6.40;99.90;;;;;;5045628;28;20639;-86
2022/12/30 04:25:37;;;;;;;19.75;3.58;;;6.20;99.90;;;;;;5060749;28;20040;-87
2022/12/30 04:28:04;;;;;;;21.63;3.58;;;;;;;;;;5041540;28;20056;-87
2022/12/30 04:30:30;;;;;;;18.83;3.90;;;5.20;99.90;;;;;;5045762;28;20045;-87
2022/12/30 04:32:55;;;;;;;15.52;3.42;;;6.70;99.90;;;;;;5041636;28;20033;-87
2022/12/30 04:35:21;;;;;;;16.98;3.63;;;6.40;99.90;;;;;;5041784;28;20045;-87
2022/12/30 04:37:48;;;;;;;16.77;3.70;;;5.30;99.90;;;;;;5043486;28;20056;-87
2022/12/30 04:40:14;;;;;;;17.77;3.67;;;6.50;99.90;;;;;;5041552;28;20048;-87
2022/12/30 04:42:40;;;;;;;16.52;3.63;;;5.20;99.90;;;;;;5040305;28;20032;-87
2022/12/30 04:45:07;;;;;;;22.20;3.97;;;5.70;99.90;;;;;;5044854;28;20048;-87
2022/12/30 04:47:32;;;;;;;24.17;3.85;;;5.20;99.90;;;;;;5043566;28;20501;-87
2022/12/30 04:49:58;;;;;;;20.35;3.58;;;5.20;99.90;;;;;;5026430;28;20044;-88
2022/12/30 04:52:24;;;;;;;17.33;3.42;;;5.20;99.90;;;;;;5029106;28;20063;-88
2022/12/30 04:54:49;;;;;;;18.83;4.10;;;6.10;99.90;;;;;;5012914;28;20048;-87
2022/12/30 04:57:15;;;;;;;17.23;3.60;;;6.20;99.90;;;;;;5043195;28;20055;-87
2022/12/30 04:59:41;;;;;;;18.10;3.55;;;6.30;99.90;;;;;;5023802;28;20049;-87
2022/12/30 05:02:06;;;;;;;20.92;3.60;;;5.20;99.90;;;;;;5022742;28;20410;-86
2022/12/30 05:04:32;;;;;;;18.35;4.28;;;5.70;99.90;;;;;;5043770;28;20033;-87
2022/12/30 05:06:58;;;;;;;16.45;4.03;;;5.20;99.90;;;;;;5044421;28;20055;-87
2022/12/30 05:09:24;;;;;;;20.92;4.85;;;6.30;99.90;;;;;;5045244;28;20036;-87
2022/12/30 05:11:50;;;;;;;19.88;4.53;;;5.80;99.90;;;;;;5030026;28;20482;-87
2022/12/30 05:14:16;;;;;;;17.65;4.50;;;5.30;99.90;;;;;;5055026;28;20436;-87
2022/12/30 05:16:42;;;;;;;19.10;4.97;;;5.40;99.90;;;;;;5040508;28;20061;-87
2022/12/30 05:19:08;;;;;;;24.02;4.90;;;6.40;99.90;;;;;;5045043;28;20275;-87
2022/12/30 05:21:34;;;;;;;19.23;4.90;;;5.50;99.90;;;;;;5027708;28;20044;-87
2022/12/30 05:26:44;;;;;;;21.00;5.28;;;6.40;99.90;;;;;;5043614;28;20044;-87
2022/12/30 05:29:10;;;;;;;20.38;5.43;;;6.30;99.90;;;;;;5040279;28;20037;-87
2022/12/30 05:31:35;;;;;;;18.27;5.13;;;5.80;99.90;;;;;;5011449;28;20078;-88
2022/12/30 05:34:01;;;;;;;20.05;5.68;;;7.00;99.90;;;;;;5028650;28;20456;-87
2022/12/30 05:36:27;;;;;;;18.83;5.45;;;5.60;99.90;;;;;;5038015;28;20065;-88
2022/12/30 05:38:52;;;;;;;18.90;5.40;;;4.50;99.90;;;;;;5041295;28;20119;-88
2022/12/30 05:41:20;;;;;;;18.48;4.90;;;5.60;99.90;;;;;;5028228;28;20043;-87
2022/12/30 05:43:48;;;;;;;20.15;5.00;;;7.20;99.90;;;;;;5043501;28;20107;-87
2022/12/30 05:46:13;;;;;;;17.50;4.57;;;6.90;99.90;;;;;;5042150;28;20045;-87
2022/12/30 05:48:39;;;;;;;17.58;4.40;;;5.60;99.90;;;;;;5043507;28;20106;-87
2022/12/30 05:51:05;;;;;;;17.70;4.55;;;6.20;99.90;;;;;;5042912;28;20059;-87
2022/12/30 05:53:31;;;;;;;17.98;4.10;;;6.50;99.90;;;;;;5047546;28;20040;-88
2022/12/30 05:55:58;;;;;;;21.55;5.13;;;7.10;99.90;;;;;;5046493;28;20049;-87
2022/12/30 05:58:24;;;;;;;15.05;4.60;;;6.50;99.90;;;;;;5032330;28;20045;-87
2022/12/30 06:00:50;;;;;;;20.25;4.65;;;5.40;99.90;;;;;;5031886;28;20079;-87
2022/12/30 06:03:16;;;;;;;16.50;4.38;;;7.10;99.90;;;;;;5031924;28;20076;-86
2022/12/30 06:05:42;;;;;;;19.83;4.95;;;5.50;99.90;;;;;;5048288;28;20044;-87
2022/12/30 06:08:09;;;;;;;15.90;4.95;;;6.00;99.90;;;;;;5043909;28;20139;-87
2022/12/30 06:10:35;;;;;;;14.68;4.35;;;5.40;99.90;;;;;;5050714;28;20042;-87
2022/12/30 06:13:01;;;;;;;18.95;4.85;;;6.10;99.90;;;;;;5046339;28;20048;-87
2022/12/30 06:15:27;;;;;;;18.30;4.82;;;6.80;99.90;;;;;;5031028;28;20135;-87
2022/12/30 06:17:53;;;;;;;19.08;3.88;;;5.30;99.90;;;;;;5031109;28;20044;-87
2022/12/30 06:20:18;;;;;;;20.27;4.40;;;5.30;99.90;;;;;;5046397;28;20037;-87
2022/12/30 06:22:44;;;;;;;17.40;4.10;;;6.30;99.90;;;;;;5031646;28;20379;-87
2022/12/30 06:25:10;;;;;;;19.30;4.28;;;5.80;99.90;;;;;;5048760;28;20099;-88
2022/12/30 06:27:36;;;;;;;18.15;4.70;;;5.10;99.90;;;;;;5045181;28;21582;-88
2022/12/30 06:30:03;;;;;;;17.80;4.55;;;5.30;99.90;;;;;;5028400;28;20128;-87
2022/12/30 06:32:29;;;;;;;17.40;3.97;;;5.10;99.90;;;;;;5046430;28;20037;-87
2022/12/30 06:34:54;;;;;;;16.50;4.22;;;6.60;99.90;;;;;;5047958;28;20086;-87
2022/12/30 06:37:20;;;;;;;16.92;4.32;;;6.30;99.90;;;;;;5047664;28;20044;-87
2022/12/30 06:39:46;;;;;;;12.60;3.45;;;5.00;99.90;;;;;;5031604;28;20048;-86
2022/12/30 06:42:11;;;;;;;15.77;3.63;;;5.00;99.90;;;;;;5047267;28;20041;-87
2022/12/30 06:44:37;;;;;;;17.63;3.83;;;5.80;99.90;;;;;;5043956;28;20064;-86
2022/12/30 06:47:03;;;;;;;17.52;4.00;;;6.20;99.90;;;;;;5047715;28;20044;-87
2022/12/30 06:49:28;;;;;;;16.55;3.75;;;4.90;99.90;;;;;;5047939;28;20044;-87
2022/12/30 06:51:54;;;;;;;14.80;3.40;;;5.40;99.90;;;;;;5029151;28;20036;-88
2022/12/30 06:54:20;;;;;;;16.38;3.65;;;4.90;99.90;;;;;;4998470;28;20053;-87
2022/12/30 06:56:45;;;;;;;19.30;3.63;;;4.90;99.90;;;;;;5044388;28;20460;-86
2022/12/30 06:59:11;;;;;;;14.63;4.05;;;5.10;99.90;;;;;;5031346;28;20052;-87
2022/12/30 07:01:37;;;;;;;16.15;4.15;;;6.20;99.90;;;;;;5029854;28;20037;-87
2022/12/30 07:04:03;;;;;;;16.20;3.47;;;4.80;99.90;;;;;;5043531;28;20041;-87
2022/12/30 07:06:28;;;;;;;15.98;3.70;;;4.80;99.90;;;;;;5045737;28;20057;-86
2022/12/30 07:08:54;;;;;;;14.90;3.45;;;;;;;;;;5059633;28;20033;-87
2022/12/30 07:11:20;;;;;;;18.00;3.78;;;4.90;99.90;;;;;;5025729;28;20041;-86
2022/12/30 07:13:46;;;;;;;15.85;3.25;;;5.90;99.90;;;;;;5020984;28;20045;-87
2022/12/30 07:16:11;;;;;;;14.90;3.70;;;6.00;99.90;;;;;;5030423;28;20528;-88
2022/12/30 07:18:37;;;;;;;17.73;3.50;;;5.40;99.90;;;;;;5029461;28;20045;-87
2022/12/30 07:21:03;;;;;;;23.25;4.22;;;6.50;99.90;;;;;;5027480;28;20979;-87
2022/12/30 07:23:29;;;;;;;12.40;3.15;;;4.80;99.90;;;;;;5030292;28;20049;-88
2022/12/30 07:25:54;;;;;;;16.20;3.10;;;5.40;99.90;;;;;;5047055;28;20128;-89
2022/12/30 07:28:20;;;;;;;15.40;3.55;;;5.40;99.90;;;;;;5043732;28;20116;-87
2022/12/30 07:30:46;;;;;;;15.73;2.95;;;4.80;99.90;;;;;;5028179;28;20486;-88
2022/12/30 07:33:11;;;;;;;20.27;3.47;;;5.80;99.90;;;;;;5048817;28;20041;-88
2022/12/30 07:35:37;;;;;;;15.95;3.50;;;4.70;99.90;;;;;;5042459;28;20042;-86
2022/12/30 07:38:03;;;;;;;16.30;3.58;;;4.70;99.90;;;;;;5033534;28;20182;-88
2022/12/30 07:40:36;;;;;;;13.05;2.97;;;6.20;99.90;;;;;;5042687;28;20041;-88
2022/12/30 07:43:02;;;;;;;16.00;3.90;;;4.70;99.90;;;;;;5014926;28;20049;-88
2022/12/30 07:45:28;;;;;;;15.52;3.25;;;6.10;99.90;;;;;;5017610;28;20124;-88
2022/12/30 07:47:53;;;;;;;15.52;2.80;;;5.90;99.90;;;;;;5050351;28;20145;-88
2022/12/30 07:50:19;;;;;;;13.98;3.20;;;5.90;99.90;;;;;;5049903;28;20095;-88
2022/12/30 07:52:45;;;;;;;15.13;3.53;;;4.70;99.90;;;;;;5051302;28;20041;-87
2022/12/30 07:55:10;;;;;;;15.63;3.55;;;6.20;99.90;;;;;;5046114;28;20048;-88
2022/12/30 07:57:36;;;;;;;14.60;3.58;;;5.30;99.90;;;;;;5034808;28;20049;-87
2022/12/30 08:00:03;;;;;;;16.23;3.60;;;4.70;99.90;;;;;;5015640;28;20045;-87
2022/12/30 08:02:28;;;;;;;16.33;3.30;;;4.90;99.90;;;;;;5050507;28;20107;-89
2022/12/30 08:04:54;;;;;;;14.80;3.30;;;6.00;99.90;;;;;;5050924;28;20076;-88
2022/12/30 08:07:20;;;;;;;16.67;3.60;;;5.20;99.90;;;;;;5050812;28;20498;-88
2022/12/30 08:09:46;;;;;;;15.10;3.30;;;4.70;99.90;;;;;;5013716;28;20149;-87
2022/12/30 08:12:11;;;;;;;17.35;3.50;;;6.20;99.90;;;;;;5061141;28;20052;-87
2022/12/30 08:14:37;;;;;;;14.82;3.22;;;4.70;99.90;;;;;;5034586;28;20448;-90
2022/12/30 08:17:03;;;;;;;19.30;3.70;;;;;;;;;;5030909;28;20564;-86
2022/12/30 08:19:30;;;;;;;14.52;3.55;;;4.70;99.90;;;;;;5049836;28;20048;-89
2022/12/30 08:21:56;;;;;;;18.48;3.47;;;4.80;99.90;;;;;;5023684;28;20049;-88
2022/12/30 08:24:22;;;;;;;20.60;3.85;;;6.50;99.90;;;;;;5048401;28;20119;-88
2022/12/30 08:26:48;;;;;;;12.00;3.22;;;4.90;99.90;;;;;;5041418;28;20163;-87
2022/12/30 08:29:13;;;;;;;13.88;3.50;;;5.70;99.90;;;;;;5047657;28;20136;-88
2022/12/30 08:31:39;;;;;;;17.08;3.35;;;5.00;99.90;;;;;;4998452;28;20041;-88
2022/12/30 08:34:05;;;;;;;16.80;3.53;;;4.90;99.90;;;;;;5015515;28;20045;-87
2022/12/30 08:36:31;;;;;;;13.23;3.00;;;5.40;99.90;;;;;;5027118;28;20409;-87
2022/12/30 08:39:00;;;;;;;14.70;3.40;;;5.60;99.90;;;;;;5031750;28;20062;-87
2022/12/30 08:41:35;;;;;;;15.00;3.08;;;4.90;99.90;;;;;;5055707;28;20036;-87
2022/12/30 08:44:02;;;;;;;17.17;3.58;;;4.90;99.90;;;;;;5046381;28;20033;-87
2022/12/30 08:46:29;;;;;;;18.08;3.58;;;5.00;99.90;;;;;;5044804;28;20068;-87
2022/12/30 08:48:55;;;;;;;14.45;3.58;;;5.00;99.90;;;;;;5031513;28;20425;-87
2022/12/30 08:51:21;;;;;;;16.30;3.58;;;5.00;99.90;;;;;;5029971;28;20287;-88
2022/12/30 08:53:47;;;;;;;16.92;3.05;;;6.00;99.90;;;;;;5040611;28;20384;-87
2022/12/30 08:56:14;;;;;;;14.23;3.30;;;5.10;99.90;;;;;;5044263;28;20041;-87
2022/12/30 08:58:40;;;;;;;15.38;2.85;;;6.50;99.90;;;;;;5040644;28;20044;-87
2022/12/30 09:01:08;;;;;;;14.85;3.15;;;5.10;99.90;;;;;;5007501;28;22100;-87
2022/12/30 09:03:33;;;;;;;17.38;3.50;;;5.10;99.90;;;;;;5027835;28;20124;-87
2022/12/30 09:06:00;;;;;;;13.65;3.15;;;6.30;99.90;;;;;;5028371;28;20484;-87
2022/12/30 09:08:25;;;;;;;16.35;3.60;;;5.10;99.90;;;;;;5022491;28;20044;-88
2022/12/30 09:11:00;;;;;;;14.02;3.00;;;5.10;99.90;;;;;;5039298;28;20070;-86
2022/12/30 09:13:26;;;;;;;15.40;2.90;;;6.10;99.90;;;;;;5021798;28;20299;-87
2022/12/30 09:15:52;;;;;;;16.20;3.38;;;6.20;99.90;;;;;;5026279;28;20460;-87
2022/12/30 09:18:18;;;;;;;17.90;3.47;;;6.50;99.90;;;;;;5009348;28;20322;-87
2022/12/30 09:20:44;;;;;;;14.48;2.92;;;6.50;99.90;;;;;;5039302;28;20675;-88
2022/12/30 09:23:10;;;;;;;14.38;3.60;;;5.30;99.90;;;;;;5027000;28;20298;-87
2022/12/30 09:25:35;;;;;;;12.73;3.03;;;5.30;99.90;;;;;;5043621;28;20036;-88
2022/12/30 09:28:01;;;;;;;15.00;3.00;;;5.30;99.90;;;;;;5042786;28;20041;-88
2022/12/30 09:30:27;;;;;;;12.52;3.83;;;5.40;99.90;;;;;;5039249;28;20064;-89
2022/12/30 09:32:53;;;;;;;13.23;3.28;;;7.00;99.90;;;;;;5027969;28;20591;-88
2022/12/30 09:35:19;;;;;;;16.52;3.08;;;6.90;99.90;;;;;;5025283;28;20067;-88
2022/12/30 09:37:44;;;;;;;14.25;3.28;;;5.40;99.90;;;;;;5028115;28;20519;-88
2022/12/30 09:40:16;;;;;;;14.13;3.70;;;7.00;99.90;;;;;;5041569;28;20072;-87
2022/12/30 09:45:41;;;;;;;11.73;2.83;;;5.50;99.90;;;;;;5042879;28;20094;-88
2022/12/30 09:48:17;;;;;;;17.15;3.50;;;5.50;99.90;;;;;;5043636;28;20040;-88
2022/12/30 09:50:54;;;;;;;12.02;3.00;;;6.80;99.90;;;;;;5027121;28;20393;-89
2022/12/30 09:54:05;;;;;;;16.08;3.05;;;5.60;99.90;;;;;;5044060;28;20391;-88
2022/12/30 09:56:35;;;;;;;13.18;2.90;;;5.60;99.90;;;;;;5022379;28;20068;-89
2022/12/30 09:59:20;;;;;;;12.88;3.67;;;5.70;99.90;;;;;;5025113;28;20076;-88
2022/12/30 10:01:56;;;;;;;17.58;3.17;;;5.70;99.90;;;;;;5041360;28;20099;-89
2022/12/30 10:04:24;;;;;;;16.02;3.08;;;5.70;99.90;;;;;;5018691;28;20467;-87
2022/12/30 10:07:02;;;;;;;13.75;2.90;;;6.80;99.90;;;;;;5038844;28;20042;-87
2022/12/30 10:09:42;;;;;;;13.82;2.95;;;5.80;99.90;;;;;;5042543;28;20132;-88
2022/12/30 10:12:20;;;;;;;14.95;3.25;;;5.80;99.90;;;;;;5043865;28;20052;-88
2022/12/30 10:15:12;;;;;;;12.45;3.00;;;6.50;99.90;;;;;;5041439;28;20045;-88
2022/12/30 10:18:22;;;;;;;15.20;2.83;;;5.90;99.90;;;;;;5040648;28;20184;-88
2022/12/30 10:21:03;;;;;;;11.88;2.65;;;5.90;99.90;;;;;;5023676;28;20540;-88
2022/12/30 10:23:55;;;;;;;13.35;2.55;;;6.00;99.90;;;;;;5042297;28;20045;-88
2022/12/30 10:26:24;;;;;;;11.73;2.70;;;6.00;99.90;;;;;;5027294;28;20049;-87
2022/12/30 10:29:01;;;;;;;13.60;3.40;;;7.50;99.90;;;;;;5041502;28;20069;-88
2022/12/30 10:31:31;;;;;;;13.23;3.20;;;6.10;99.90;;;;;;5039930;28;20497;-87
2022/12/30 10:34:28;;;;;;;12.55;2.85;;;6.20;99.90;;;;;;5043966;28;20049;-88
2022/12/30 10:37:26;;;;;;;13.20;3.00;;;6.20;99.90;;;;;;5053158;28;20051;-88
2022/12/30 10:39:52;;;;;;;10.45;2.88;;;6.30;99.90;;;;;;5021388;28;20056;-88
2022/12/30 10:42:57;;;;;;;13.05;2.50;;;6.30;99.90;;;;;;5042966;28;20540;-87
2022/12/30 10:45:38;;;;;;;14.23;2.90;;;6.40;99.90;;;;;;5045279;28;20251;-88
2022/12/30 10:48:43;;;;;;;12.15;2.70;;;6.40;99.90;;;;;;5046412;28;20355;-88
2022/12/30 10:51:16;;;;;;;10.57;2.50;;;6.50;99.90;;;;;;5010199;28;20045;-88
2022/12/30 10:53:46;;;;;;;10.48;2.50;;;7.10;99.90;;;;;;5044953;28;20049;-87
2022/12/30 10:56:28;;;;;;;10.60;2.50;;;7.50;99.90;;;;;;5048745;28;20393;-88
2022/12/30 10:59:00;;;;;;;9.70;2.80;;;6.60;99.90;;;;;;5045246;28;20519;-88
2022/12/30 11:01:35;;;;;;;13.95;3.00;;;6.70;99.90;;;;;;5046390;28;20040;-88
2022/12/30 11:04:00;;;;;;;9.88;2.28;;;8.20;99.90;;;;;;5043834;28;20088;-88
2022/12/30 11:06:30;;;;;;;12.10;2.80;;;6.70;99.90;;;;;;5046615;28;20068;-87
2022/12/30 11:09:11;;;;;;;11.60;2.67;;;6.90;99.90;;;;;;5044973;28;20391;-87
2022/12/30 11:15:12;;;;;;;10.25;2.20;;;6.80;99.90;;;;;;5014789;28;20053;-88
2022/12/30 11:17:46;;;;;;;8.52;1.98;;;6.80;99.90;;;;;;5043202;28;20045;-87
2022/12/30 11:20:32;;;;;;;9.70;2.35;;;7.50;99.90;;;;;;5027535;28;20041;-88
2022/12/30 11:23:02;;;;;;;9.77;2.28;;;6.90;99.90;;;;;;5045081;28;20110;-88
2022/12/30 11:25:29;;;;;;;10.05;2.15;;;6.90;99.90;;;;;;5040393;28;20068;-87
2022/12/30 11:28:01;;;;;;;11.13;2.30;;;7.90;99.90;;;;;;5044393;28;20525;-88
2022/12/30 11:30:50;;;;;;;8.05;2.20;;;7.70;99.90;;;;;;5045697;28;20490;-88
2022/12/30 11:33:29;;;;;;;11.43;2.58;;;7.00;99.90;;;;;;5027556;28;20041;-88
2022/12/30 11:36:29;;;;;;;9.15;1.98;;;7.00;99.90;;;;;;5044987;28;20514;-88
2022/12/30 11:39:24;;;;;;;10.60;2.33;;;7.00;99.90;;;;;;5062832;28;20051;-88
2022/12/30 11:41:59;;;;;;;7.45;2.20;;;7.10;99.90;;;;;;5035558;28;20490;-88
2022/12/30 11:44:28;;;;;;;8.90;2.10;;;7.10;99.90;;;;;;5040677;28;20513;-88
2022/12/30 11:47:04;;;;;;;12.48;2.50;;;7.10;99.90;;;;;;5023808;28;20037;-89
2022/12/30 11:49:37;;;;;;;9.10;2.20;;;7.10;99.90;;;;;;5035212;28;20079;-89
2022/12/30 11:52:03;;;;;;;12.50;2.70;;;7.20;99.90;;;;;;5047575;28;20051;-88
2022/12/30 11:54:38;;;;;;;9.15;2.10;;;8.30;99.90;;;;;;5030770;28;20044;-88
2022/12/30 11:57:17;;;;;;;7.90;2.35;;;7.70;99.90;;;;;;5046967;28;20163;-88
2022/12/30 11:59:48;;;;;;;8.55;1.88;;;8.00;99.90;;;;;;5042966;28;20084;-88
2022/12/30 12:02:28;;;;;;;9.50;2.28;;;8.00;99.90;;;;;;5056749;28;20229;-88
2022/12/30 12:04:54;;;;;;;9.13;2.30;;;7.30;99.90;;;;;;5028452;28;20041;-87
2022/12/30 12:07:30;;;;;;;9.40;2.00;;;7.60;99.90;;;;;;5047015;28;20040;-87
2022/12/30 12:09:59;;;;;;;7.47;2.08;;;7.30;99.90;;;;;;5043485;28;20045;-88
2022/12/30 12:12:30;;;;;;;9.88;2.20;;;7.40;99.90;;;;;;5041057;28;20611;-87
2022/12/30 12:15:10;;;;;;;9.50;2.20;;;7.50;99.90;;;;;;5048008;28;20045;-88
2022/12/30 12:17:51;;;;;;;9.60;2.08;;;7.40;99.90;;;;;;5042946;28;21991;-87
2022/12/30 12:20:42;;;;;;;9.68;2.10;;;7.50;99.90;;;;;;5035654;28;20048;-89
2022/12/30 12:23:16;;;;;;;10.23;2.05;;;7.50;99.90;;;;;;5056589;28;20029;-91
2022/12/30 12:26:03;;;;;;;10.05;2.22;;;7.50;99.90;;;;;;5027180;28;20071;-90
2022/12/30 12:28:30;;;;;;;10.43;2.33;;;7.60;99.90;;;;;;5025519;28;20090;-88
2022/12/30 12:31:08;;;;;;;10.43;1.95;;;7.60;99.90;;;;;;5028903;28;20067;-91
2022/12/30 12:33:53;;;;;;;13.77;2.92;;;7.60;99.90;;;;;;5059451;28;20094;-91
2022/12/30 12:36:46;;;;;;;10.60;1.95;;;7.60;99.90;;;;;;5039743;28;20037;-89
2022/12/30 12:39:24;;;;;;;8.07;2.03;;;7.60;99.90;;;;;;5023279;28;20046;-91
2022/12/30 12:41:59;;;;;;;9.25;2.10;;;7.70;99.90;;;;;;5032656;28;20036;-89
2022/12/30 12:44:28;;;;;;;9.27;2.45;;;7.70;99.90;;;;;;5023008;28;20131;-89
2022/12/30 12:46:59;;;;;;;8.38;2.13;;;8.40;99.90;;;;;;5042007;28;20131;-88
2022/12/30 12:49:51;;;;;;;11.75;2.60;;;7.70;99.90;;;;;;5020526;28;20066;-87
2022/12/30 12:52:35;;;;;;;8.52;2.15;;;7.80;99.90;;;;;;5043533;28;20124;-88
2022/12/30 12:55:40;;;;;;;11.05;3.00;;;7.80;99.90;;;;;;5042901;28;20405;-89
2022/12/30 12:58:19;;;;;;;9.40;2.38;;;7.80;99.90;;;;;;5044265;28;20130;-89
2022/12/30 13:01:08;;;;;;;8.07;2.33;;;7.90;99.90;;;;;;5024324;28;20132;-88
2022/12/30 13:03:45;;;;;;;10.93;2.05;;;7.90;99.90;;;;;;5022295;28;20528;-87
2022/12/30 13:06:13;;;;;;;10.10;2.33;;;7.90;99.90;;;;;;5020612;28;20044;-87
2022/12/30 13:08:58;;;;;;;9.23;2.08;;;7.90;99.90;;;;;;5043065;28;20167;-88
2022/12/30 13:11:26;;;;;;;7.75;2.03;;;8.10;99.90;;;;;;5042627;28;20316;-88
2022/12/30 13:14:07;;;;;;;12.13;2.42;;;8.30;99.90;;;;;;5027497;28;20036;-88
2022/12/30 13:16:42;;;;;;;10.60;2.08;;;7.90;99.90;;;;;;5040522;28;20249;-88
2022/12/30 13:19:13;;;;;;;6.65;2.00;;;7.90;99.90;;;;;;5024433;28;20544;-89
2022/12/30 13:21:41;;;;;;;7.85;2.10;;;8.00;99.90;;;;;;5027228;28;20045;-87
2022/12/30 13:24:11;;;;;;;9.68;2.25;;;8.00;99.90;;;;;;5028849;28;20128;-88
2022/12/30 13:26:37;;;;;;;10.27;2.00;;;8.00;99.90;;;;;;5043827;28;20044;-90
2022/12/30 13:29:04;;;;;;;10.57;1.95;;;8.00;99.90;;;;;;5011416;28;20040;-88
2022/12/30 13:31:41;;;;;;;11.25;2.65;;;8.60;99.90;;;;;;5043365;28;20516;-90
2022/12/30 13:34:25;;;;;;;13.18;2.15;;;8.00;99.90;;;;;;5029331;28;20041;-89
2022/12/30 13:37:12;;;;;;;8.82;1.88;;;8.00;99.90;;;;;;5030802;28;20124;-89
2022/12/30 13:40:11;;;;;;;6.43;1.70;;;8.10;99.90;;;;;;5043030;28;20558;-89
2022/12/30 13:42:58;;;;;;;7.97;1.85;;;8.10;99.90;;;;;;5008553;28;20060;-89
2022/12/30 13:45:28;;;;;;;6.88;1.75;;;8.10;99.90;;;;;;5059677;28;20040;-88
2022/12/30 13:48:04;;;;;;;7.65;1.98;;;8.10;99.90;;;;;;5045241;28;20458;-89
2022/12/30 13:50:33;;;;;;;8.65;1.85;;;8.20;99.90;;;;;;5044406;28;20532;-89
2022/12/30 13:53:00;;;;;;;6.05;1.77;;;8.20;99.90;;;;;;5031772;28;20344;-88
2022/12/30 13:55:31;;;;;;;10.25;2.10;;;8.30;99.90;;;;;;5046554;28;20489;-89
2022/12/30 13:58:05;;;;;;;7.47;1.88;;;8.30;99.90;;;;;;5025648;28;20160;-88
2022/12/30 14:00:38;;;;;;;8.55;1.80;;;8.30;99.90;;;;;;5042500;28;20045;-88
2022/12/30 14:03:09;;;;;;;14.70;2.20;;;8.30;99.90;;;;;;5043201;28;20033;-89
2022/12/30 14:05:38;;;;;;;8.30;2.13;;;8.30;99.90;;;;;;5045549;28;20033;-89
2022/12/30 14:08:20;;;;;;;8.43;1.75;;;8.30;99.90;;;;;;5023123;28;20128;-89
2022/12/30 14:11:01;;;;;;;6.25;1.75;;;8.30;99.90;;;;;;5043103;28;21438;-90